sensor_id;sensor_type;location;lat;lon;timestamp;pressure;altitude;pressure_sealevel;temperature;humidity
24486;BME280;13449;49.374;8.584;2023-07-31T00:00:06;100461.22;;;16.79;75.61
24486;BME280;13449;49.374;8.584;2023-07-31T00:02:35;100464.84;;;16.78;75.92
24486;BME280;13449;49.374;8.584;2023-07-31T00:05:02;100461.53;;;16.76;76.23
24486;BME280;13449;49.374;8.584;2023-07-31T00:07:31;100469.34;;;16.77;76.30
24486;BME280;13449;49.374;8.584;2023-07-31T00:09:57;100453.53;;;16.76;74.87
24486;BME280;13449;49.374;8.584;2023-07-31T00:12:24;100457.03;;;16.76;75.11
24486;BME280;13449;49.374;8.584;2023-07-31T00:14:50;100455.38;;;16.75;75.05
24486;BME280;13449;49.374;8.584;2023-07-31T00:17:17;100460.69;;;16.75;75.17
24486;BME280;13449;49.374;8.584;2023-07-31T00:19:44;100449.22;;;16.75;74.63
24486;BME280;13449;49.374;8.584;2023-07-31T00:22:14;100440.25;;;16.76;73.86
24486;BME280;13449;49.374;8.584;2023-07-31T00:24:41;100443.56;;;16.78;74.02
24486;BME280;13449;49.374;8.584;2023-07-31T00:27:07;100438.59;;;16.75;74.65
24486;BME280;13449;49.374;8.584;2023-07-31T00:29:36;100438.59;;;16.75;74.08
24486;BME280;13449;49.374;8.584;2023-07-31T00:32:05;100442.91;;;16.76;73.88
24486;BME280;13449;49.374;8.584;2023-07-31T00:34:32;100441.09;;;16.76;74.69
24486;BME280;13449;49.374;8.584;2023-07-31T00:36:58;100439.25;;;16.77;73.38
24486;BME280;13449;49.374;8.584;2023-07-31T00:39:25;100439.41;;;16.75;73.95
24486;BME280;13449;49.374;8.584;2023-07-31T00:41:51;100433.25;;;16.75;74.11
24486;BME280;13449;49.374;8.584;2023-07-31T00:44:20;100434.09;;;16.75;74.06
24486;BME280;13449;49.374;8.584;2023-07-31T00:46:49;100432.28;;;16.76;73.01
24486;BME280;13449;49.374;8.584;2023-07-31T00:49:16;100431.59;;;16.74;74.06
24486;BME280;13449;49.374;8.584;2023-07-31T00:51:42;100433.94;;;16.77;73.14
24486;BME280;13449;49.374;8.584;2023-07-31T00:54:11;100425.94;;;16.77;72.62
24486;BME280;13449;49.374;8.584;2023-07-31T00:56:38;100424.81;;;16.80;72.08
24486;BME280;13449;49.374;8.584;2023-07-31T00:59:06;100429.44;;;16.77;73.33
24486;BME280;13449;49.374;8.584;2023-07-31T01:01:34;100418.81;;;16.77;73.67
24486;BME280;13449;49.374;8.584;2023-07-31T01:04:01;100415.47;;;16.75;73.83
24486;BME280;13449;49.374;8.584;2023-07-31T01:06:44;100414.81;;;16.73;73.71
24486;BME280;13449;49.374;8.584;2023-07-31T01:09:22;100412.28;;;16.72;72.95
24486;BME280;13449;49.374;8.584;2023-07-31T01:11:56;100418.44;;;16.72;73.48
24486;BME280;13449;49.374;8.584;2023-07-31T01:14:24;100419.59;;;16.70;73.33
24486;BME280;13449;49.374;8.584;2023-07-31T01:16:50;100415.94;;;16.71;72.84
24486;BME280;13449;49.374;8.584;2023-07-31T01:19:22;100410.59;;;16.71;72.87
24486;BME280;13449;49.374;8.584;2023-07-31T01:22:04;100411.31;;;16.73;73.12
24486;BME280;13449;49.374;8.584;2023-07-31T01:24:56;100399.69;;;16.74;72.23
24486;BME280;13449;49.374;8.584;2023-07-31T01:27:29;100394.03;;;16.77;72.04
24486;BME280;13449;49.374;8.584;2023-07-31T01:32:31;100396.69;;;16.77;73.92
24486;BME280;13449;49.374;8.584;2023-07-31T01:34:59;100394.03;;;16.77;73.49
24486;BME280;13449;49.374;8.584;2023-07-31T01:37:29;100391.03;;;16.80;72.61
24486;BME280;13449;49.374;8.584;2023-07-31T01:39:56;100384.06;;;16.79;72.44
24486;BME280;13449;49.374;8.584;2023-07-31T01:42:22;100382.91;;;16.82;72.07
24486;BME280;13449;49.374;8.584;2023-07-31T01:44:49;100370.59;;;16.81;71.80
24486;BME280;13449;49.374;8.584;2023-07-31T01:47:15;100378.25;;;16.84;72.10
24486;BME280;13449;49.374;8.584;2023-07-31T01:49:44;100372.78;;;16.85;71.90
24486;BME280;13449;49.374;8.584;2023-07-31T01:52:11;100382.75;;;16.83;71.79
24486;BME280;13449;49.374;8.584;2023-07-31T01:54:37;100381.06;;;16.82;71.99
24486;BME280;13449;49.374;8.584;2023-07-31T01:57:06;100379.09;;;16.84;71.96
24486;BME280;13449;49.374;8.584;2023-07-31T01:59:35;100370.13;;;16.85;71.52
24486;BME280;13449;49.374;8.584;2023-07-31T02:02:02;100377.25;;;16.85;71.88
24486;BME280;13449;49.374;8.584;2023-07-31T02:04:31;100370.44;;;16.82;71.84
24486;BME280;13449;49.374;8.584;2023-07-31T02:06:57;100367.63;;;16.84;70.93
24486;BME280;13449;49.374;8.584;2023-07-31T02:09:24;100369.59;;;16.82;72.22
24486;BME280;13449;49.374;8.584;2023-07-31T02:11:52;100362.47;;;16.82;71.77
24486;BME280;13449;49.374;8.584;2023-07-31T02:14:21;100362.63;;;16.81;72.41
24486;BME280;13449;49.374;8.584;2023-07-31T02:16:48;100362.78;;;16.79;73.67
24486;BME280;13449;49.374;8.584;2023-07-31T02:19:17;100358.47;;;16.78;72.68
24486;BME280;13449;49.374;8.584;2023-07-31T02:21:45;100354.13;;;16.77;72.32
24486;BME280;13449;49.374;8.584;2023-07-31T02:24:12;100348.97;;;16.75;71.98
24486;BME280;13449;49.374;8.584;2023-07-31T02:26:38;100351.81;;;16.74;73.35
24486;BME280;13449;49.374;8.584;2023-07-31T02:29:08;100353.47;;;16.75;72.75
24486;BME280;13449;49.374;8.584;2023-07-31T02:31:34;100344.50;;;16.76;72.82
24486;BME280;13449;49.374;8.584;2023-07-31T02:34:01;100340.84;;;16.77;71.90
24486;BME280;13449;49.374;8.584;2023-07-31T02:36:28;100335.50;;;16.77;71.51
24486;BME280;13449;49.374;8.584;2023-07-31T02:38:56;100339.16;;;16.76;71.95
24486;BME280;13449;49.374;8.584;2023-07-31T02:41:23;100348.97;;;16.75;72.98
24486;BME280;13449;49.374;8.584;2023-07-31T02:43:49;100335.84;;;16.74;71.84
24486;BME280;13449;49.374;8.584;2023-07-31T02:46:16;100341.16;;;16.74;72.24
24486;BME280;13449;49.374;8.584;2023-07-31T02:48:45;100342.00;;;16.74;72.59
24486;BME280;13449;49.374;8.584;2023-07-31T02:51:13;100342.81;;;16.75;72.35
24486;BME280;13449;49.374;8.584;2023-07-31T02:53:40;100346.47;;;16.74;72.31
24486;BME280;13449;49.374;8.584;2023-07-31T02:56:07;100337.50;;;16.75;72.34
24486;BME280;13449;49.374;8.584;2023-07-31T02:58:33;100340.16;;;16.75;71.59
24486;BME280;13449;49.374;8.584;2023-07-31T03:01:00;100343.66;;;16.75;71.48
24486;BME280;13449;49.374;8.584;2023-07-31T03:03:26;100348.44;;;16.72;72.26
24486;BME280;13449;49.374;8.584;2023-07-31T03:05:53;100343.13;;;16.72;72.37
24486;BME280;13449;49.374;8.584;2023-07-31T03:08:20;100342.63;;;16.68;72.71
24486;BME280;13449;49.374;8.584;2023-07-31T03:10:48;100339.13;;;16.68;73.08
24486;BME280;13449;49.374;8.584;2023-07-31T03:13:15;100336.47;;;16.68;71.68
24486;BME280;13449;49.374;8.584;2023-07-31T03:15:42;100335.09;;;16.64;72.54
24486;BME280;13449;49.374;8.584;2023-07-31T03:18:10;100331.75;;;16.62;71.38
24486;BME280;13449;49.374;8.584;2023-07-31T03:20:42;100333.75;;;16.60;71.65
24486;BME280;13449;49.374;8.584;2023-07-31T03:23:09;100345.38;;;16.59;72.79
24486;BME280;13449;49.374;8.584;2023-07-31T03:25:35;100345.84;;;16.54;71.86
24486;BME280;13449;49.374;8.584;2023-07-31T03:28:02;100340.00;;;16.51;72.68
24486;BME280;13449;49.374;8.584;2023-07-31T03:30:31;100346.47;;;16.48;73.06
24486;BME280;13449;49.374;8.584;2023-07-31T03:32:58;100341.66;;;16.43;72.82
24486;BME280;13449;49.374;8.584;2023-07-31T03:35:24;100339.28;;;16.40;71.83
24486;BME280;13449;49.374;8.584;2023-07-31T03:37:51;100340.75;;;16.35;73.39
24486;BME280;13449;49.374;8.584;2023-07-31T03:40:17;100338.09;;;16.35;72.50
24486;BME280;13449;49.374;8.584;2023-07-31T03:42:44;100333.94;;;16.32;72.57
24486;BME280;13449;49.374;8.584;2023-07-31T03:45:17;100342.22;;;16.29;74.16
24486;BME280;13449;49.374;8.584;2023-07-31T03:47:44;100343.38;;;16.27;73.53
24486;BME280;13449;49.374;8.584;2023-07-31T03:50:10;100337.53;;;16.23;73.80
24486;BME280;13449;49.374;8.584;2023-07-31T03:52:37;100335.84;;;16.22;73.28
24486;BME280;13449;49.374;8.584;2023-07-31T03:55:04;100338.66;;;16.21;73.88
24486;BME280;13449;49.374;8.584;2023-07-31T03:57:30;100340.56;;;16.28;73.04
24486;BME280;13449;49.374;8.584;2023-07-31T03:59:59;100340.03;;;16.25;73.59
24486;BME280;13449;49.374;8.584;2023-07-31T04:02:25;100346.16;;;16.25;73.79
24486;BME280;13449;49.374;8.584;2023-07-31T04:04:52;100342.56;;;16.26;73.98
24486;BME280;13449;49.374;8.584;2023-07-31T04:07:18;100339.56;;;16.29;73.54
24486;BME280;13449;49.374;8.584;2023-07-31T04:09:45;100337.75;;;16.30;73.17
24486;BME280;13449;49.374;8.584;2023-07-31T04:12:11;100341.41;;;16.29;73.81
24486;BME280;13449;49.374;8.584;2023-07-31T04:14:40;100342.22;;;16.29;74.56
24486;BME280;13449;49.374;8.584;2023-07-31T04:17:06;100338.56;;;16.30;74.43
24486;BME280;13449;49.374;8.584;2023-07-31T04:19:37;100347.53;;;16.29;75.10
24486;BME280;13449;49.374;8.584;2023-07-31T04:22:06;100345.03;;;16.28;76.18
24486;BME280;13449;49.374;8.584;2023-07-31T04:24:35;100344.06;;;16.29;74.67
24486;BME280;13449;49.374;8.584;2023-07-31T04:27:01;100342.22;;;16.29;73.59
24486;BME280;13449;49.374;8.584;2023-07-31T04:29:32;100341.91;;;16.32;75.09
24486;BME280;13449;49.374;8.584;2023-07-31T04:31:59;100357.84;;;16.32;76.25
24486;BME280;13449;49.374;8.584;2023-07-31T04:34:25;100343.91;;;16.30;75.44
24486;BME280;13449;49.374;8.584;2023-07-31T04:36:51;100342.75;;;16.33;74.33
24486;BME280;13449;49.374;8.584;2023-07-31T04:39:18;100339.91;;;16.34;73.56
24486;BME280;13449;49.374;8.584;2023-07-31T04:41:44;100346.06;;;16.35;75.05
24486;BME280;13449;49.374;8.584;2023-07-31T04:44:11;100343.25;;;16.36;75.17
24486;BME280;13449;49.374;8.584;2023-07-31T04:46:37;100344.91;;;16.37;76.00
24486;BME280;13449;49.374;8.584;2023-07-31T04:49:04;100336.78;;;16.39;75.31
24486;BME280;13449;49.374;8.584;2023-07-31T04:51:31;100343.75;;;16.40;75.51
24486;BME280;13449;49.374;8.584;2023-07-31T04:53:57;100344.59;;;16.40;75.89
24486;BME280;13449;49.374;8.584;2023-07-31T04:56:29;100338.31;;;16.41;75.48
24486;BME280;13449;49.374;8.584;2023-07-31T04:58:55;100346.81;;;16.45;76.25
24486;BME280;13449;49.374;8.584;2023-07-31T05:01:24;100338.66;;;16.46;75.21
24486;BME280;13449;49.374;8.584;2023-07-31T05:03:51;100339.19;;;16.50;75.69
24486;BME280;13449;49.374;8.584;2023-07-31T05:06:18;100346.00;;;16.53;76.12
24486;BME280;13449;49.374;8.584;2023-07-31T05:08:49;100339.69;;;16.54;75.36
24486;BME280;13449;49.374;8.584;2023-07-31T05:11:15;100337.69;;;16.56;75.18
24486;BME280;13449;49.374;8.584;2023-07-31T05:13:42;100332.09;;;16.59;75.22
24486;BME280;13449;49.374;8.584;2023-07-31T05:16:08;100337.09;;;16.62;74.89
24486;BME280;13449;49.374;8.584;2023-07-31T05:18:35;100331.44;;;16.65;74.84
24486;BME280;13449;49.374;8.584;2023-07-31T05:21:01;100326.81;;;16.67;74.45
24486;BME280;13449;49.374;8.584;2023-07-31T05:23:28;100326.50;;;16.70;75.39
24486;BME280;13449;49.374;8.584;2023-07-31T05:25:54;100329.16;;;16.70;74.69
24486;BME280;13449;49.374;8.584;2023-07-31T05:28:21;100332.47;;;16.72;74.88
24486;BME280;13449;49.374;8.584;2023-07-31T05:30:48;100321.00;;;16.71;73.77
24486;BME280;13449;49.374;8.584;2023-07-31T05:33:17;100327.16;;;16.72;73.77
24486;BME280;13449;49.374;8.584;2023-07-31T05:35:43;100327.16;;;16.72;74.67
24486;BME280;13449;49.374;8.584;2023-07-31T05:38:11;100332.47;;;16.72;74.04
24486;BME280;13449;49.374;8.584;2023-07-31T05:40:38;100326.50;;;16.70;73.16
24486;BME280;13449;49.374;8.584;2023-07-31T05:43:05;100330.81;;;16.71;74.52
24486;BME280;13449;49.374;8.584;2023-07-31T05:45:32;100330.81;;;16.71;74.89
24486;BME280;13449;49.374;8.584;2023-07-31T05:47:59;100336.13;;;16.71;74.97
24486;BME280;13449;49.374;8.584;2023-07-31T05:50:25;100327.16;;;16.72;75.18
24486;BME280;13449;49.374;8.584;2023-07-31T05:52:52;100325.19;;;16.74;75.04
24486;BME280;13449;49.374;8.584;2023-07-31T05:55:21;100326.88;;;16.75;74.50
24486;BME280;13449;49.374;8.584;2023-07-31T05:57:50;100333.69;;;16.77;76.07
24486;BME280;13449;49.374;8.584;2023-07-31T06:00:16;100326.53;;;16.78;75.64
24486;BME280;13449;49.374;8.584;2023-07-31T06:02:47;100329.69;;;16.82;75.07
24486;BME280;13449;49.374;8.584;2023-07-31T06:05:14;100323.38;;;16.83;75.06
24486;BME280;13449;49.374;8.584;2023-07-31T06:07:43;100323.06;;;16.86;74.34
24486;BME280;13449;49.374;8.584;2023-07-31T06:10:09;100325.56;;;16.87;74.92
24486;BME280;13449;49.374;8.584;2023-07-31T06:12:36;100325.25;;;16.90;74.91
24486;BME280;13449;49.374;8.584;2023-07-31T06:15:06;100324.94;;;16.93;74.55
24486;BME280;13449;49.374;8.584;2023-07-31T06:17:35;100322.59;;;16.98;75.11
24486;BME280;13449;49.374;8.584;2023-07-31T06:20:02;100316.13;;;17.01;74.98
24486;BME280;13449;49.374;8.584;2023-07-31T06:22:31;100319.97;;;17.06;74.12
24486;BME280;13449;49.374;8.584;2023-07-31T06:24:58;100309.00;;;17.10;74.53
24486;BME280;13449;49.374;8.584;2023-07-31T06:27:24;100318.16;;;17.15;74.79
24486;BME280;13449;49.374;8.584;2023-07-31T06:29:51;100320.31;;;17.20;74.88
24486;BME280;13449;49.374;8.584;2023-07-31T06:32:17;100323.66;;;17.22;75.31
24486;BME280;13449;49.374;8.584;2023-07-31T06:34:44;100321.66;;;17.24;75.19
24486;BME280;13449;49.374;8.584;2023-07-31T06:37:11;100310.69;;;17.27;74.77
24486;BME280;13449;49.374;8.584;2023-07-31T06:39:37;100318.00;;;17.33;74.94
24486;BME280;13449;49.374;8.584;2023-07-31T06:42:04;100318.03;;;17.41;76.04
24486;BME280;13449;49.374;8.584;2023-07-31T06:44:30;100308.38;;;17.48;74.91
24486;BME280;13449;49.374;8.584;2023-07-31T06:46:57;100307.56;;;17.56;74.12
24486;BME280;13449;49.374;8.584;2023-07-31T06:49:23;100299.38;;;17.65;74.73
24486;BME280;13449;49.374;8.584;2023-07-31T06:51:50;100296.53;;;17.67;73.32
24486;BME280;13449;49.374;8.584;2023-07-31T06:54:16;100295.09;;;17.73;72.83
24486;BME280;13449;49.374;8.584;2023-07-31T06:56:43;100298.91;;;17.78;74.63
24486;BME280;13449;49.374;8.584;2023-07-31T06:59:10;100308.09;;;17.84;74.27
24486;BME280;13449;49.374;8.584;2023-07-31T07:01:36;100302.75;;;17.84;72.48
24486;BME280;13449;49.374;8.584;2023-07-31T07:04:05;100313.06;;;17.87;73.93
24486;BME280;13449;49.374;8.584;2023-07-31T07:06:32;100315.56;;;17.88;73.95
24486;BME280;13449;49.374;8.584;2023-07-31T07:08:58;100306.88;;;17.94;72.95
24486;BME280;13449;49.374;8.584;2023-07-31T07:11:27;100301.38;;;17.96;73.25
24486;BME280;13449;49.374;8.584;2023-07-31T07:13:56;100296.22;;;18.03;72.22
24486;BME280;13449;49.374;8.584;2023-07-31T07:16:22;100285.69;;;18.09;72.16
24486;BME280;13449;49.374;8.584;2023-07-31T07:18:49;100291.69;;;18.19;72.50
24486;BME280;13449;49.374;8.584;2023-07-31T07:21:29;100291.59;;;18.44;72.61
24486;BME280;13449;49.374;8.584;2023-07-31T07:23:56;100293.22;;;18.53;71.53
24486;BME280;13449;49.374;8.584;2023-07-31T07:26:23;100282.91;;;18.50;70.36
24486;BME280;13449;49.374;8.584;2023-07-31T07:28:49;100298.53;;;18.61;71.82
24486;BME280;13449;49.374;8.584;2023-07-31T07:31:16;100281.81;;;18.75;70.83
24486;BME280;13449;49.374;8.584;2023-07-31T07:33:42;100274.06;;;18.89;68.76
24486;BME280;13449;49.374;8.584;2023-07-31T07:36:09;100283.78;;;19.12;70.48
24486;BME280;13449;49.374;8.584;2023-07-31T07:38:36;100283.78;;;19.35;69.47
24486;BME280;13449;49.374;8.584;2023-07-31T07:41:03;100277.06;;;19.39;69.12
24486;BME280;13449;49.374;8.584;2023-07-31T07:43:29;100277.78;;;19.33;68.95
24486;BME280;13449;49.374;8.584;2023-07-31T07:45:56;100270.97;;;19.31;69.34
24486;BME280;13449;49.374;8.584;2023-07-31T07:48:22;100278.78;;;19.32;69.13
24486;BME280;13449;49.374;8.584;2023-07-31T07:50:49;100270.69;;;19.26;67.00
24486;BME280;13449;49.374;8.584;2023-07-31T07:53:16;100274.19;;;19.26;69.89
24486;BME280;13449;49.374;8.584;2023-07-31T07:55:42;100280.81;;;19.30;69.28
24486;BME280;13449;49.374;8.584;2023-07-31T07:58:09;100279.16;;;19.29;69.43
24486;BME280;13449;49.374;8.584;2023-07-31T08:00:35;100275.47;;;19.30;69.33
24486;BME280;13449;49.374;8.584;2023-07-31T08:03:07;100267.38;;;19.38;69.04
24486;BME280;13449;49.374;8.584;2023-07-31T08:05:34;100267.50;;;19.45;69.07
24486;BME280;13449;49.374;8.584;2023-07-31T08:08:01;100270.16;;;19.68;69.27
24486;BME280;13449;49.374;8.584;2023-07-31T08:10:27;100266.63;;;19.90;68.07
24486;BME280;13449;49.374;8.584;2023-07-31T08:12:56;100255.00;;;20.13;67.09
24486;BME280;13449;49.374;8.584;2023-07-31T08:15:23;100270.53;;;20.47;68.25
24486;BME280;13449;49.374;8.584;2023-07-31T08:17:49;100265.91;;;20.55;66.85
24486;BME280;13449;49.374;8.584;2023-07-31T08:20:18;100256.59;;;20.51;66.29
24486;BME280;13449;49.374;8.584;2023-07-31T08:22:45;100247.72;;;20.36;65.77
24486;BME280;13449;49.374;8.584;2023-07-31T08:25:11;100236.84;;;20.23;64.77
24486;BME280;13449;49.374;8.584;2023-07-31T08:27:40;100251.78;;;20.17;67.13
24486;BME280;13449;49.374;8.584;2023-07-31T08:30:11;100234.56;;;20.05;65.89
24486;BME280;13449;49.374;8.584;2023-07-31T08:32:41;100235.47;;;19.97;65.99
24486;BME280;13449;49.374;8.584;2023-07-31T08:35:10;100234.56;;;19.90;67.60
24486;BME280;13449;49.374;8.584;2023-07-31T08:37:37;100225.97;;;19.80;65.84
24486;BME280;13449;49.374;8.584;2023-07-31T08:40:05;100231.03;;;19.75;66.34
24486;BME280;13449;49.374;8.584;2023-07-31T08:42:32;100211.00;;;19.71;65.53
24486;BME280;13449;49.374;8.584;2023-07-31T08:44:59;100221.25;;;19.82;68.36
24486;BME280;13449;49.374;8.584;2023-07-31T08:47:27;100204.84;;;19.85;66.41
24486;BME280;13449;49.374;8.584;2023-07-31T08:49:55;100211.13;;;19.92;66.68
24486;BME280;13449;49.374;8.584;2023-07-31T08:52:21;100212.31;;;20.19;68.10
24486;BME280;13449;49.374;8.584;2023-07-31T08:54:48;100212.16;;;20.72;66.33
24486;BME280;13449;49.374;8.584;2023-07-31T08:57:15;100202.47;;;20.71;65.46
24486;BME280;13449;49.374;8.584;2023-07-31T08:59:45;100187.78;;;20.67;64.83
24486;BME280;13449;49.374;8.584;2023-07-31T09:02:13;100186.38;;;20.49;65.01
24486;BME280;13449;49.374;8.584;2023-07-31T09:04:44;100190.06;;;20.48;65.02
24486;BME280;13449;49.374;8.584;2023-07-31T09:07:11;100192.47;;;20.43;65.51
24486;BME280;13449;49.374;8.584;2023-07-31T09:09:39;100187.69;;;20.39;64.54
24486;BME280;13449;49.374;8.584;2023-07-31T09:12:06;100180.38;;;20.32;64.56
24486;BME280;13449;49.374;8.584;2023-07-31T09:14:33;100193.31;;;20.44;66.53
24486;BME280;13449;49.374;8.584;2023-07-31T09:17:03;100191.81;;;20.77;67.08
24486;BME280;13449;49.374;8.584;2023-07-31T09:19:33;100165.13;;;21.05;64.05
24486;BME280;13449;49.374;8.584;2023-07-31T09:22:00;100174.31;;;21.17;64.84
24486;BME280;13449;49.374;8.584;2023-07-31T09:24:32;100172.13;;;21.06;63.37
24486;BME280;13449;49.374;8.584;2023-07-31T09:27:00;100187.41;;;21.12;64.27
24486;BME280;13449;49.374;8.584;2023-07-31T09:29:28;100194.38;;;21.49;65.77
24486;BME280;13449;49.374;8.584;2023-07-31T09:31:55;100178.81;;;21.66;63.91
24486;BME280;13449;49.374;8.584;2023-07-31T09:34:29;100174.03;;;21.96;62.68
24486;BME280;13449;49.374;8.584;2023-07-31T09:37:01;100169.31;;;22.46;63.22
24486;BME280;13449;49.374;8.584;2023-07-31T09:39:29;100163.19;;;22.72;61.38
24486;BME280;13449;49.374;8.584;2023-07-31T09:42:01;100142.53;;;22.66;60.77
24486;BME280;13449;49.374;8.584;2023-07-31T09:44:40;100138.59;;;22.62;60.27
24486;BME280;13449;49.374;8.584;2023-07-31T09:47:23;100133.81;;;22.44;61.53
24486;BME280;13449;49.374;8.584;2023-07-31T09:49:51;100135.06;;;22.41;60.18
24486;BME280;13449;49.374;8.584;2023-07-31T09:52:18;100144.19;;;22.60;64.21
24486;BME280;13449;49.374;8.584;2023-07-31T09:54:44;100113.16;;;22.51;58.41
24486;BME280;13449;49.374;8.584;2023-07-31T09:57:11;100107.97;;;22.30;58.48
24486;BME280;13449;49.374;8.584;2023-07-31T09:59:38;100113.44;;;22.08;58.37
24486;BME280;13449;49.374;8.584;2023-07-31T10:02:07;100129.13;;;22.05;61.37
24486;BME280;13449;49.374;8.584;2023-07-31T10:04:36;100124.94;;;21.96;60.48
24486;BME280;13449;49.374;8.584;2023-07-31T10:07:03;100118.72;;;21.89;59.63
24486;BME280;13449;49.374;8.584;2023-07-31T10:09:33;100110.50;;;21.97;59.71
24486;BME280;13449;49.374;8.584;2023-07-31T10:12:04;100119.97;;;21.93;61.20
24486;BME280;13449;49.374;8.584;2023-07-31T10:14:35;100131.47;;;21.80;62.61
24486;BME280;13449;49.374;8.584;2023-07-31T10:17:02;100120.28;;;21.76;61.68
24486;BME280;13449;49.374;8.584;2023-07-31T10:19:29;100124.47;;;21.79;63.53
24486;BME280;13449;49.374;8.584;2023-07-31T10:21:56;100122.34;;;21.74;62.35
24486;BME280;13449;49.374;8.584;2023-07-31T10:24:25;100108.72;;;21.69;60.23
24486;BME280;13449;49.374;8.584;2023-07-31T10:26:53;100113.28;;;21.75;62.72
24486;BME280;13449;49.374;8.584;2023-07-31T10:29:22;100110.06;;;21.93;63.05
24486;BME280;13449;49.374;8.584;2023-07-31T10:31:54;100109.06;;;22.01;63.04
24486;BME280;13449;49.374;8.584;2023-07-31T10:34:22;100103.31;;;22.04;61.21
24486;BME280;13449;49.374;8.584;2023-07-31T10:36:49;100102.88;;;22.00;61.75
24486;BME280;13449;49.374;8.584;2023-07-31T10:39:35;100103.91;;;21.99;62.33
24486;BME280;13449;49.374;8.584;2023-07-31T10:42:12;100104.75;;;22.00;61.80
24486;BME280;13449;49.374;8.584;2023-07-31T10:44:46;100099.09;;;22.29;63.96
24486;BME280;13449;49.374;8.584;2023-07-31T10:47:17;100080.75;;;22.53;60.98
24486;BME280;13449;49.374;8.584;2023-07-31T10:49:46;100064.06;;;22.57;57.77
24486;BME280;13449;49.374;8.584;2023-07-31T10:52:20;100077.28;;;22.59;58.26
24486;BME280;13449;49.374;8.584;2023-07-31T10:55:27;100080.56;;;22.48;58.82
24486;BME280;13449;49.374;8.584;2023-07-31T10:57:56;100072.63;;;22.20;57.08
24486;BME280;13449;49.374;8.584;2023-07-31T11:03:03;100082.00;;;21.89;58.49
24486;BME280;13449;49.374;8.584;2023-07-31T11:05:55;100099.50;;;21.78;60.18
24486;BME280;13449;49.374;8.584;2023-07-31T11:08:29;100095.59;;;21.88;61.69
24486;BME280;13449;49.374;8.584;2023-07-31T11:13:42;100090.44;;;21.79;60.13
24486;BME280;13449;49.374;8.584;2023-07-31T11:16:10;100086.38;;;21.97;61.12
24486;BME280;13449;49.374;8.584;2023-07-31T11:18:45;100090.00;;;22.30;61.83
24486;BME280;13449;49.374;8.584;2023-07-31T11:21:15;100060.72;;;22.35;58.64
24486;BME280;13449;49.374;8.584;2023-07-31T11:23:49;100061.56;;;22.42;58.49
24486;BME280;13449;49.374;8.584;2023-07-31T11:26:17;100050.63;;;22.51;59.42
24486;BME280;13449;49.374;8.584;2023-07-31T11:28:46;100053.28;;;22.37;59.34
24486;BME280;13449;49.374;8.584;2023-07-31T11:31:13;100048.53;;;22.33;58.36
24486;BME280;13449;49.374;8.584;2023-07-31T11:33:40;100052.84;;;22.27;58.02
24486;BME280;13449;49.374;8.584;2023-07-31T11:36:09;100057.94;;;22.09;58.70
24486;BME280;13449;49.374;8.584;2023-07-31T11:38:40;100067.56;;;21.90;59.12
24486;BME280;13449;49.374;8.584;2023-07-31T11:41:09;100072.69;;;21.85;62.32
24486;BME280;13449;49.374;8.584;2023-07-31T11:43:40;100060.94;;;21.79;60.51
24486;BME280;13449;49.374;8.584;2023-07-31T11:46:07;100054.97;;;21.91;61.38
24486;BME280;13449;49.374;8.584;2023-07-31T11:48:36;100061.41;;;22.03;62.44
24486;BME280;13449;49.374;8.584;2023-07-31T11:51:05;100051.19;;;22.13;61.68
24486;BME280;13449;49.374;8.584;2023-07-31T11:56:04;100045.41;;;22.23;60.46
24486;BME280;13449;49.374;8.584;2023-07-31T11:58:34;100042.31;;;22.19;61.95
24486;BME280;13449;49.374;8.584;2023-07-31T12:01:01;100040.03;;;22.16;61.56
24486;BME280;13449;49.374;8.584;2023-07-31T12:03:28;100029.88;;;22.05;60.60
24486;BME280;13449;49.374;8.584;2023-07-31T12:05:55;100026.34;;;21.98;60.84
24486;BME280;13449;49.374;8.584;2023-07-31T12:08:25;100037.69;;;22.00;62.52
24486;BME280;13449;49.374;8.584;2023-07-31T12:10:53;100038.31;;;22.02;62.51
24486;BME280;13449;49.374;8.584;2023-07-31T12:13:24;100002.81;;;22.00;59.74
24486;BME280;13449;49.374;8.584;2023-07-31T12:15:59;100019.34;;;21.97;61.39
24486;BME280;13449;49.374;8.584;2023-07-31T12:18:33;100017.88;;;22.01;61.00
24486;BME280;13449;49.374;8.584;2023-07-31T12:21:01;100028.00;;;21.99;61.92
24486;BME280;13449;49.374;8.584;2023-07-31T12:23:29;100016.84;;;22.02;61.90
24486;BME280;13449;49.374;8.584;2023-07-31T12:26:04;100015.28;;;22.14;62.52
24486;BME280;13449;49.374;8.584;2023-07-31T12:28:50;100013.66;;;22.26;61.47
24486;BME280;13449;49.374;8.584;2023-07-31T12:31:21;100007.25;;;22.47;61.81
24486;BME280;13449;49.374;8.584;2023-07-31T12:33:50;100008.91;;;22.61;61.28
24486;BME280;13449;49.374;8.584;2023-07-31T12:36:22;99997.75;;;22.64;59.88
24486;BME280;13449;49.374;8.584;2023-07-31T12:38:52;99985.97;;;22.72;59.22
24486;BME280;13449;49.374;8.584;2023-07-31T12:41:19;100000.44;;;22.84;61.71
24486;BME280;13449;49.374;8.584;2023-07-31T12:43:45;99992.41;;;22.84;60.67
24486;BME280;13449;49.374;8.584;2023-07-31T12:46:12;99994.25;;;22.77;61.08
24486;BME280;13449;49.374;8.584;2023-07-31T12:48:39;99981.03;;;22.76;60.07
24486;BME280;13449;49.374;8.584;2023-07-31T12:51:06;99983.94;;;22.74;59.56
24486;BME280;13449;49.374;8.584;2023-07-31T12:53:33;99979.38;;;22.68;61.45
24486;BME280;13449;49.374;8.584;2023-07-31T12:56:01;99971.13;;;22.63;59.48
24486;BME280;13449;49.374;8.584;2023-07-31T12:58:27;99966.78;;;22.62;59.59
24486;BME280;13449;49.374;8.584;2023-07-31T13:00:54;99953.78;;;22.65;58.72
24486;BME280;13449;49.374;8.584;2023-07-31T13:03:20;99960.38;;;22.76;59.01
24486;BME280;13449;49.374;8.584;2023-07-31T13:05:47;99957.06;;;22.87;58.00